Time;durP1;ratioP1;P1;durP2;ratioP2;P2;SDS_P1;SDS_P2;PMS_P1;PMS_P2;Temp;Humidity;BMP_temperature;BMP_pressure;BME280_temperature;BME280_humidity;BME280_pressure;Samples;Min_cycle;Max_cycle;Signal;HPM_P1;HPM_P2
2022/03/22 00:00:33;;;;;;;18.02;10.00;;;;;;;-0.01;69.21;98773.75;5026565;28;20048;-60
2022/03/22 00:03:00;;;;;;;18.73;9.50;;;;;;;-0.08;70.07;98764.72;5023284;28;20137;-60
2022/03/22 00:05:26;;;;;;;20.40;10.90;;;;;;;-0.26;70.17;98765.47;5025663;28;20488;-60
2022/03/22 00:07:53;;;;;;;17.05;9.65;;;;;;;-0.37;70.64;98773.69;5026280;28;20061;-60
2022/03/22 00:10:19;;;;;;;20.48;10.55;;;;;;;-0.37;70.49;98771.00;5025649;28;20045;-61
2022/03/22 00:12:48;;;;;;;22.17;9.55;;;;;;;-0.37;69.98;98771.84;5024824;28;20064;-61
2022/03/22 00:15:16;;;;;;;16.88;9.00;;;;;;;-0.19;69.75;98758.59;5025542;28;20071;-61
2022/03/22 00:18:04;;;;;;;18.17;8.48;;;;;;;-0.08;69.20;98770.03;5028769;28;20516;-61
2022/03/22 00:20:31;;;;;;;19.92;9.32;;;;;;;-0.01;69.06;98769.28;5027338;28;20175;-61
2022/03/22 00:22:58;;;;;;;17.63;9.10;;;;;;;-0.11;69.33;98763.16;5024724;28;20781;-61
2022/03/22 00:25:25;;;;;;;15.10;8.68;;;;;;;-0.07;68.90;98763.72;5032551;28;20520;-62
2022/03/22 00:27:52;;;;;;;16.58;9.48;;;;;;;-0.13;69.06;98762.47;5028275;28;20477;-61
2022/03/22 00:30:30;;;;;;;18.65;9.65;;;;;;;-0.18;69.04;98760.25;5024614;28;20453;-61
2022/03/22 00:33:02;;;;;;;15.85;9.55;;;;;;;-0.18;68.78;98765.56;5025195;28;20061;-61
2022/03/22 00:35:30;;;;;;;20.33;10.27;;;;;;;-0.21;69.19;98757.91;5034086;28;20044;-61
2022/03/22 00:37:58;;;;;;;15.18;8.80;;;;;;;-0.20;68.93;98756.06;5027471;28;20512;-61
2022/03/22 00:40:28;;;;;;;17.27;8.98;;;;;;;-0.27;69.08;98753.16;5025364;28;20041;-61
2022/03/22 00:42:56;;;;;;;17.90;9.70;;;;;;;-0.46;69.44;98760.25;5015005;28;20639;-61
2022/03/22 00:45:30;;;;;;;16.65;9.07;;;;;;;-0.36;69.42;98756.72;5025414;28;20049;-60
2022/03/22 00:47:58;;;;;;;17.92;8.23;;;;;;;-0.18;68.78;98754.94;5026222;28;20045;-61
2022/03/22 00:50:30;;;;;;;14.52;8.40;;;;;;;-0.24;68.71;98746.69;5026664;28;20042;-60
2022/03/22 00:52:58;;;;;;;16.20;9.40;;;;;;;-0.52;69.72;98755.50;5020917;28;20451;-61
2022/03/22 00:55:27;;;;;;;18.77;9.40;;;;;;;-0.54;69.98;98750.34;5026462;28;20486;-61
2022/03/22 00:57:55;;;;;;;17.00;9.32;;;;;;;-0.53;69.71;98745.84;5026707;28;20056;-61
2022/03/22 01:00:24;;;;;;;16.83;8.45;;;;;;;-0.49;69.22;98741.06;5028071;28;20049;-61
2022/03/22 01:02:58;;;;;;;18.05;8.68;;;;;;;-0.66;69.68;98744.34;5026149;28;20045;-61
2022/03/22 01:05:27;;;;;;;16.20;9.02;;;;;;;-0.62;70.06;98738.75;5027412;28;20072;-62
2022/03/22 01:07:59;;;;;;;15.30;9.10;;;;;;;-0.85;71.14;98733.81;5027126;28;20053;-62
2022/03/22 01:10:28;;;;;;;15.20;8.45;;;;;;;-0.88;71.03;98744.72;5026622;28;20049;-62
2022/03/22 01:12:55;;;;;;;20.80;9.98;;;;;;;-0.88;70.93;98742.06;5016527;28;20049;-61
2022/03/22 01:15:33;;;;;;;18.00;9.77;;;;;;;-0.88;70.64;98742.06;5026700;28;20464;-60
2022/03/22 01:18:10;;;;;;;18.38;9.75;;;;;;;-0.99;71.17;98733.25;5024265;28;20056;-60
2022/03/22 01:20:49;;;;;;;14.05;8.52;;;;;;;-1.07;71.64;98733.16;5021803;28;20055;-61
2022/03/22 01:23:19;;;;;;;19.80;10.25;;;;;;;-1.18;71.90;98732.31;5026419;28;20095;-61
2022/03/22 01:25:45;;;;;;;15.57;9.00;;;;;;;-1.21;72.01;98732.59;5026074;28;20041;-61
2022/03/22 01:28:13;;;;;;;15.50;9.38;;;;;;;-1.22;72.07;98730.09;5027218;28;20056;-61
2022/03/22 01:30:41;;;;;;;15.82;9.10;;;;;;;-1.13;72.01;98726.59;5027654;28;20052;-61
2022/03/22 01:33:08;;;;;;;14.95;8.57;;;;;;;-1.10;71.89;98730.78;5018889;28;20909;-61
2022/03/22 01:35:35;;;;;;;16.27;7.90;;;;;;;-1.10;71.39;98720.16;5022919;28;20116;-61
2022/03/22 01:38:02;;;;;;;18.92;8.95;;;;;;;-1.13;71.52;98720.44;5041640;28;20633;-61
2022/03/22 01:40:30;;;;;;;21.25;9.48;;;;;;;-1.24;71.87;98721.44;5025244;28;20040;-60
2022/03/22 01:42:58;;;;;;;14.68;8.70;;;;;;;-1.26;71.91;98718.91;5023763;28;20531;-62
2022/03/22 01:45:24;;;;;;;20.17;10.07;;;;;;;-1.28;72.56;98715.56;5026745;28;20050;-61
2022/03/22 01:47:54;;;;;;;19.85;10.20;;;;;;;-1.36;72.32;98718.09;5025820;28;20513;-61
2022/03/22 01:50:22;;;;;;;17.52;7.88;;;;;;;-1.34;72.12;98716.13;5028119;28;20050;-62
2022/03/22 01:52:48;;;;;;;16.20;8.93;;;;;;;-1.41;72.28;98721.16;5023764;28;20045;-61
2022/03/22 01:55:20;;;;;;;16.80;10.20;;;;;;;-1.40;72.06;98714.88;5024228;28;20840;-61
2022/03/22 01:57:47;;;;;;;20.23;10.73;;;;;;;-1.42;71.90;98708.00;5025195;28;20107;-61
2022/03/22 02:00:17;;;;;;;20.13;10.43;;;;;;;-1.42;72.08;98705.34;5025992;28;20055;-61
2022/03/22 02:05:51;;;;;;;17.45;9.77;;;;;;;-1.50;72.09;98704.28;5025356;28;20614;-60
2022/03/22 02:08:29;;;;;;;12.40;7.13;;;;;;;-1.45;72.30;98699.38;5024958;28;20049;-61
2022/03/22 02:10:59;;;;;;;14.35;8.13;;;;;;;-1.26;71.30;98696.81;5027257;28;20045;-61
2022/03/22 02:13:29;;;;;;;15.20;8.05;;;;;;;-1.27;71.58;98695.13;5024787;28;20096;-61
2022/03/22 02:15:59;;;;;;;17.60;9.55;;;;;;;-1.37;71.54;98693.34;5025070;28;20042;-61
2022/03/22 02:18:26;;;;;;;17.45;8.98;;;;;;;-1.57;72.50;98705.81;5026299;28;20497;-61
2022/03/22 02:20:54;;;;;;;19.38;9.88;;;;;;;-1.63;72.91;98696.56;5025257;28;20072;-60
2022/03/22 02:23:35;;;;;;;18.73;9.20;;;;;;;-1.62;72.96;98694.78;5017655;28;20045;-62
2022/03/22 02:26:02;;;;;;;17.73;9.35;;;;;;;-1.77;72.89;98695.16;5022433;28;20045;-60
2022/03/22 02:28:29;;;;;;;17.27;8.00;;;;;;;-1.88;73.39;98690.84;5025671;28;20052;-61
2022/03/22 02:30:56;;;;;;;15.98;9.63;;;;;;;-1.84;73.82;98696.72;5024916;28;20551;-61
2022/03/22 02:33:23;;;;;;;17.85;8.65;;;;;;;-1.66;73.38;98694.19;5023738;28;20045;-61
2022/03/22 02:35:50;;;;;;;18.73;9.70;;;;;;;-1.60;72.74;98696.31;5027384;28;20132;-61
2022/03/22 02:38:16;;;;;;;17.40;9.52;;;;;;;-1.65;73.11;98697.69;5028408;28;20045;-61
2022/03/22 02:40:45;;;;;;;18.25;10.23;;;;;;;-1.66;73.09;98698.69;5027857;28;20049;-61
2022/03/22 02:43:12;;;;;;;17.67;8.95;;;;;;;-1.52;72.80;98703.56;5012623;28;20034;-61
2022/03/22 02:45:38;;;;;;;15.18;8.85;;;;;;;-1.48;72.43;98698.78;5023317;28;20045;-61
2022/03/22 02:48:05;;;;;;;20.10;8.43;;;;;;;-1.31;71.97;98705.22;5028171;28;20616;-60
2022/03/22 02:50:31;;;;;;;14.90;7.80;;;;;;;-1.22;71.14;98693.72;5025552;28;20087;-61
2022/03/22 02:53:00;;;;;;;18.42;9.52;;;;;;;-1.20;71.24;98693.59;5024367;28;20045;-61
2022/03/22 02:55:27;;;;;;;19.17;8.35;;;;;;;-1.44;72.01;98695.72;5021639;28;20049;-61
2022/03/22 02:57:54;;;;;;;17.38;9.32;;;;;;;-1.57;72.60;98700.50;5023888;28;20045;-61
2022/03/22 03:00:23;;;;;;;24.08;10.55;;;;;;;-1.75;73.44;98703.00;5018975;28;20559;-57
2022/03/22 03:02:51;;;;;;;21.13;9.35;;;;;;;-1.70;73.25;98708.72;5018815;28;20523;-60
2022/03/22 03:05:19;;;;;;;16.60;8.70;;;;;;;-1.72;73.56;98705.38;5022937;28;20540;-61
2022/03/22 03:07:46;;;;;;;14.35;8.77;;;;;;;-1.76;73.13;98704.00;5024717;28;20197;-61
2022/03/22 03:10:13;;;;;;;17.15;9.32;;;;;;;-1.75;73.50;98709.16;5024859;28;20508;-61
2022/03/22 03:12:39;;;;;;;18.13;9.30;;;;;;;-1.79;73.62;98707.75;5016157;28;20045;-61
2022/03/22 03:15:08;;;;;;;17.88;9.55;;;;;;;-1.78;73.72;98716.56;5012723;28;20053;-61
2022/03/22 03:17:35;;;;;;;17.15;8.65;;;;;;;-1.55;73.19;98714.47;5023402;28;20042;-61
2022/03/22 03:20:04;;;;;;;16.45;9.07;;;;;;;-1.52;72.72;98710.72;5023855;28;20104;-61
2022/03/22 03:22:31;;;;;;;20.10;10.20;;;;;;;-1.57;73.21;98709.31;5024921;28;20120;-61
2022/03/22 03:24:58;;;;;;;18.13;9.60;;;;;;;-1.57;73.27;98717.28;5022802;28;20050;-61
2022/03/22 03:27:24;;;;;;;14.52;8.10;;;;;;;-1.51;73.00;98715.84;5020157;28;20507;-61
2022/03/22 03:29:51;;;;;;;21.00;9.77;;;;;;;-1.33;72.03;98717.81;5011785;28;20049;-61
2022/03/22 03:32:17;;;;;;;20.73;11.13;;;;;;;-1.27;71.95;98721.69;5023425;28;20143;-60
2022/03/22 03:34:45;;;;;;;17.33;9.88;;;;;;;-1.40;72.25;98714.03;5025330;28;20052;-61
2022/03/22 03:37:11;;;;;;;21.15;9.88;;;;;;;-1.54;73.06;98721.47;5036417;28;20041;-61
2022/03/22 03:39:38;;;;;;;18.77;9.60;;;;;;;-1.61;73.48;98720.34;5008826;28;20060;-61
2022/03/22 03:42:06;;;;;;;18.02;8.75;;;;;;;-1.62;74.02;98714.19;5024359;28;20049;-60
2022/03/22 03:47:22;;;;;;;19.75;11.05;;;;;;;-1.74;73.96;98720.59;5023873;28;20049;-61
2022/03/22 03:49:52;;;;;;;23.52;10.52;;;;;;;-1.83;74.64;98720.47;5022817;28;20035;-61
2022/03/22 03:52:33;;;;;;;23.60;10.30;;;;;;;-1.67;74.33;98724.41;5022388;28;20045;-61
2022/03/22 03:55:01;;;;;;;20.80;8.90;;;;;;;-1.67;73.81;98720.91;5005433;28;20050;-61
2022/03/22 03:57:28;;;;;;;16.75;9.48;;;;;;;-1.65;74.21;98726.91;5014537;28;20069;-61
2022/03/22 03:59:56;;;;;;;15.68;8.88;;;;;;;-1.61;74.69;98728.31;5025580;28;20756;-61
2022/03/22 04:02:23;;;;;;;19.98;9.43;;;;;;;-1.58;74.12;98728.84;5020972;28;20045;-60
2022/03/22 04:04:55;;;;;;;18.23;9.73;;;;;;;-1.57;74.11;98733.22;5022103;28;20094;-61
2022/03/22 04:07:24;;;;;;;16.55;8.85;;;;;;;-1.57;73.96;98729.72;5024131;28;20046;-61
2022/03/22 04:09:50;;;;;;;19.52;9.23;;;;;;;-1.55;74.50;98735.72;5026694;28;20056;-61
2022/03/22 04:12:17;;;;;;;17.13;9.60;;;;;;;-1.45;73.82;98728.59;5027629;28;20045;-61
2022/03/22 04:14:44;;;;;;;16.92;9.75;;;;;;;-1.47;73.98;98735.03;5026756;28;20049;-61
2022/03/22 04:17:10;;;;;;;20.40;10.35;;;;;;;-1.67;74.52;98727.06;5026558;28;20059;-59
2022/03/22 04:19:37;;;;;;;15.60;8.70;;;;;;;-1.74;74.73;98728.56;5028208;28;20042;-61
2022/03/22 04:22:05;;;;;;;21.10;8.75;;;;;;;-1.61;74.42;98725.66;5028016;28;20416;-61
2022/03/22 04:24:32;;;;;;;19.25;10.63;;;;;;;-1.80;75.19;98715.88;5008459;28;20100;-61
2022/03/22 04:32:41;;;;;;;18.88;10.18;;;;;;;-1.84;75.32;98723.28;5012590;28;20034;-58
2022/03/22 04:32:43;;;;;;;17.90;8.55;;;;;;;-1.64;74.53;98731.25;5027995;28;20038;-61
2022/03/22 04:35:17;;;;;;;17.17;8.65;;;;;;;-1.58;74.45;98725.38;5027051;28;20041;-59
2022/03/22 04:37:47;;;;;;;20.45;10.55;;;;;;;-1.68;74.89;98727.19;5016747;28;20064;-62
2022/03/22 04:40:16;;;;;;;18.63;9.52;;;;;;;-1.81;75.07;98730.94;5027633;28;20038;-65
2022/03/22 04:42:45;;;;;;;18.50;10.52;;;;;;;-1.99;75.85;98731.63;5025476;28;20085;-62
2022/03/22 04:45:11;;;;;;;19.98;10.68;;;;;;;-2.05;76.55;98729.53;5027832;28;20444;-61
2022/03/22 04:47:39;;;;;;;22.25;10.20;;;;;;;-2.02;76.62;98728.44;5018992;28;20048;-62
2022/03/22 04:50:07;;;;;;;23.15;11.40;;;;;;;-2.01;76.27;98730.94;5024845;28;20041;-61
2022/03/22 04:58:08;;;;;;;22.00;11.50;;;;;;;-2.04;77.17;98730.34;5027322;28;20504;-61
2022/03/22 05:00:35;;;;;;;24.63;10.43;;;;;;;-1.88;76.61;98735.16;5026682;28;20045;-61
2022/03/22 05:03:03;;;;;;;20.38;11.00;;;;;;;-1.66;76.13;98733.22;5025633;28;20041;-61
2022/03/22 05:08:14;;;;;;;20.73;10.13;;;;;;;-1.33;74.57;98741.75;5027010;28;20041;-62
2022/03/22 05:10:41;;;;;;;20.05;11.68;;;;;;;-1.24;74.48;98737.38;5026845;28;20045;-62
2022/03/22 05:13:08;;;;;;;21.05;10.52;;;;;;;-1.14;73.74;98745.34;5026810;28;20096;-62
2022/03/22 05:15:34;;;;;;;22.92;10.57;;;;;;;-1.04;74.32;98743.50;5025789;28;20053;-61
2022/03/22 05:18:01;;;;;;;22.75;11.55;;;;;;;-1.38;74.55;98747.47;5022955;28;20037;-61
2022/03/22 05:20:29;;;;;;;22.90;11.77;;;;;;;-1.55;75.44;98741.03;5023950;28;20591;-62
2022/03/22 05:22:58;;;;;;;18.85;10.02;;;;;;;-1.48;75.44;98750.13;5021013;28;20049;-61
2022/03/22 05:25:30;;;;;;;21.55;11.68;;;;;;;-1.43;74.63;98757.69;5020299;28;20045;-62
2022/03/22 05:27:59;;;;;;;24.92;12.93;;;;;;;-1.63;75.26;98757.66;5022057;28;20045;-62
2022/03/22 05:30:26;;;;;;;21.23;10.50;;;;;;;-1.50;74.70;98760.06;5022423;28;20045;-61
2022/03/22 05:32:53;;;;;;;18.83;10.38;;;;;;;-1.54;74.91;98763.97;5023100;28;20078;-61
2022/03/22 05:35:20;;;;;;;17.25;10.30;;;;;;;-1.67;75.73;98764.22;5023342;28;20599;-61
2022/03/22 05:37:47;;;;;;;20.92;10.93;;;;;;;-1.78;76.60;98757.22;5026533;28;20053;-61
2022/03/22 05:40:15;;;;;;;17.08;10.75;;;;;;;-1.92;76.80;98765.63;5023387;28;20064;-60
2022/03/22 05:42:42;;;;;;;20.05;11.05;;;;;;;-2.00;77.59;98756.50;5022302;28;20045;-67
2022/03/22 05:45:11;;;;;;;18.58;10.27;;;;;;;-1.90;76.75;98766.28;5027798;28;20063;-68
2022/03/22 05:47:39;;;;;;;23.90;11.40;;;;;;;-1.71;76.11;98765.47;5025359;28;20563;-66
2022/03/22 05:50:07;;;;;;;18.95;10.75;;;;;;;-1.53;75.54;98757.69;5022340;28;20096;-68
2022/03/22 05:52:33;;;;;;;18.20;10.57;;;;;;;-1.60;75.85;98760.06;5022239;28;20568;-69
2022/03/22 05:55:00;;;;;;;22.02;10.43;;;;;;;-1.62;76.26;98761.16;5021734;28;20045;-69
2022/03/22 05:57:26;;;;;;;23.48;12.98;;;;;;;-1.64;76.10;98763.13;5023313;28;20543;-68
2022/03/22 05:59:53;;;;;;;19.38;10.63;;;;;;;-1.55;75.76;98764.09;5022965;28;20072;-69
2022/03/22 06:02:19;;;;;;;23.45;12.02;;;;;;;-1.46;75.63;98766.78;5023385;28;20046;-67
2022/03/22 06:04:48;;;;;;;18.63;10.73;;;;;;;-1.52;75.90;98766.50;5023956;28;20107;-68
2022/03/22 06:07:14;;;;;;;23.85;11.60;;;;;;;-1.54;76.18;98763.97;5029917;28;20041;-69
2022/03/22 06:09:41;;;;;;;20.95;11.90;;;;;;;-1.40;76.14;98759.22;5034382;28;20449;-70
2022/03/22 06:12:08;;;;;;;17.95;10.52;;;;;;;-1.37;75.47;98765.06;5023875;28;20056;-67
2022/03/22 06:14:35;;;;;;;19.35;11.07;;;;;;;-1.39;75.39;98763.53;5023096;28;20137;-68
2022/03/22 06:17:02;;;;;;;19.40;10.65;;;;;;;-1.37;75.55;98765.06;5022840;28;20041;-67
2022/03/22 06:19:28;;;;;;;21.58;11.93;;;;;;;-1.27;75.25;98764.22;5022730;28;20037;-65
2022/03/22 06:22:00;;;;;;;19.73;11.00;;;;;;;-1.16;75.74;98760.56;5022573;28;20065;-67
2022/03/22 06:24:26;;;;;;;19.10;11.15;;;;;;;-1.22;75.53;98754.84;5029252;28;20509;-69
2022/03/22 06:26:53;;;;;;;17.25;10.55;;;;;;;-1.09;74.70;98756.38;5020115;28;20046;-68
2022/03/22 06:29:20;;;;;;;24.20;10.57;;;;;;;-1.00;74.92;98754.69;5020899;28;20049;-69
2022/03/22 06:31:47;;;;;;;20.63;10.73;;;;;;;-0.87;74.69;98755.22;5020249;28;20509;-66
2022/03/22 06:34:14;;;;;;;24.52;11.50;;;;;;;-0.71;73.70;98761.72;5021640;28;20731;-70
2022/03/22 06:36:40;;;;;;;20.52;11.52;;;;;;;-0.58;73.13;98756.09;5036104;28;20041;-65
2022/03/22 06:39:07;;;;;;;28.40;11.43;;;;;;;-0.43;73.15;98759.13;5023373;28;20052;-68
2022/03/22 06:41:34;;;;;;;21.85;11.70;;;;;;;-0.31;73.01;98755.28;5029055;28;20041;-67
2022/03/22 06:44:00;;;;;;;21.40;10.05;;;;;;;-0.20;72.37;98756.91;5027750;28;20045;-69
2022/03/22 06:46:27;;;;;;;23.70;11.93;;;;;;;-0.07;72.58;98758.41;5025087;28;20095;-67
2022/03/22 06:48:54;;;;;;;22.38;11.70;;;;;;;0.02;72.60;98759.31;5025101;28;20128;-66
2022/03/22 06:51:25;;;;;;;24.23;11.93;;;;;;;0.04;73.48;98752.84;5021519;28;20041;-67
2022/03/22 06:53:52;;;;;;;18.60;10.55;;;;;;;0.25;73.06;98765.91;5014674;28;20049;-66
2022/03/22 06:56:18;;;;;;;22.90;12.55;;;;;;;0.50;72.28;98765.28;5020905;28;20045;-67
2022/03/22 06:58:45;;;;;;;21.60;11.50;;;;;;;0.81;71.14;98761.41;5020808;28;20053;-68
2022/03/22 07:01:11;;;;;;;25.40;11.95;;;;;;;1.08;71.26;98764.91;5019101;28;20045;-67
2022/03/22 07:03:43;;;;;;;21.83;10.82;;;;;;;1.16;70.14;98760.50;5021710;28;20052;-69
2022/03/22 07:06:09;;;;;;;21.80;10.73;;;;;;;1.12;70.69;98760.94;5021211;28;20045;-67
2022/03/22 07:08:36;;;;;;;19.77;11.57;;;;;;;1.27;70.02;98762.06;5022898;28;20040;-68
2022/03/22 07:13:49;;;;;;;20.33;10.15;;;;;;;1.71;68.37;98749.59;5021821;28;20049;-68
2022/03/22 07:16:16;;;;;;;21.85;10.82;;;;;;;1.93;67.94;98748.19;5020329;28;20041;-68
2022/03/22 07:18:43;;;;;;;19.05;10.65;;;;;;;2.15;68.06;98748.56;5025142;28;20041;-68
2022/03/22 07:21:09;;;;;;;23.52;12.45;;;;;;;2.42;66.56;98746.63;5023432;28;20057;-71
2022/03/22 07:23:36;;;;;;;23.33;11.02;;;;;;;2.56;66.27;98744.28;5024870;28;20041;-67
2022/03/22 07:26:03;;;;;;;22.83;11.68;;;;;;;2.68;66.43;98745.63;5023991;28;20053;-69
2022/03/22 07:28:30;;;;;;;24.35;12.07;;;;;;;2.79;66.40;98741.78;5024634;28;20057;-67
2022/03/22 07:30:56;;;;;;;20.38;12.25;;;;;;;2.86;66.11;98753.50;5023616;28;20286;-64
2022/03/22 07:33:23;;;;;;;20.60;11.05;;;;;;;3.04;64.53;98754.31;5025110;28;20049;-70
2022/03/22 07:35:49;;;;;;;19.83;11.80;;;;;;;3.39;63.43;98754.91;5023906;28;20041;-67
2022/03/22 07:38:16;;;;;;;21.02;11.00;;;;;;;3.81;61.97;98754.78;5025327;28;20056;-70
2022/03/22 07:40:42;;;;;;;20.42;10.38;;;;;;;3.93;61.83;98756.06;5022686;28;20045;-65
2022/03/22 07:43:09;;;;;;;19.67;10.80;;;;;;;4.07;61.69;98754.50;5023141;28;20048;-66
2022/03/22 07:45:36;;;;;;;15.70;8.98;;;;;;;4.07;61.60;98759.84;5027669;28;20037;-67
2022/03/22 07:48:04;;;;;;;16.77;9.98;;;;;;;4.11;61.69;98765.69;5026783;28;20041;-66
2022/03/22 07:53:16;;;;;;;16.67;9.98;;;;;;;5.04;58.19;98767.56;5023164;28;20580;-63
2022/03/22 07:55:43;;;;;;;17.20;9.73;;;;;;;5.17;57.60;98765.09;5024907;28;20041;-60
2022/03/22 07:58:11;;;;;;;18.13;10.13;;;;;;;5.33;56.40;98764.13;5020477;28;20524;-63
2022/03/22 08:00:41;;;;;;;18.55;10.18;;;;;;;5.45;55.44;98767.16;5021712;28;20045;-62
2022/03/22 08:03:12;;;;;;;18.42;9.25;;;;;;;5.54;54.31;98759.88;5018067;28;20037;-62
2022/03/22 08:05:40;;;;;;;17.45;10.13;;;;;;;5.65;55.03;98769.31;5024620;28;20525;-61
2022/03/22 08:08:07;;;;;;;16.83;10.10;;;;;;;5.75;53.37;98770.91;5024259;28;20704;-60
2022/03/22 08:10:54;;;;;;;19.23;10.35;;;;;;;5.98;53.52;98776.16;5026169;28;20095;-59
2022/03/22 08:13:20;;;;;;;21.63;9.57;;;;;;;6.11;53.90;98778.19;5027263;28;20042;-57
2022/03/22 08:15:47;;;;;;;21.10;10.68;;;;;;;6.29;53.75;98779.63;5020351;28;20054;-61
2022/03/22 08:18:15;;;;;;;21.10;14.10;;;;;;;6.40;53.00;98773.78;5028318;28;20041;-60
2022/03/22 08:20:42;;;;;;;20.33;10.50;;;;;;;6.54;52.12;98779.31;5027226;28;20048;-60
2022/03/22 08:23:09;;;;;;;18.70;9.57;;;;;;;6.62;52.12;98776.47;5027608;28;20052;-60
2022/03/22 08:25:39;;;;;;;17.05;10.10;;;;;;;6.71;52.18;98779.91;5023010;28;20049;-62
2022/03/22 08:28:07;;;;;;;17.15;10.40;;;;;;;6.86;51.99;98777.16;5027288;28;20051;-62
2022/03/22 08:30:35;;;;;;;20.35;11.32;;;;;;;6.96;52.45;98774.13;5028047;28;20042;-61
2022/03/22 08:33:06;;;;;;;20.63;10.55;;;;;;;7.10;52.24;98773.19;5028248;28;20053;-64
2022/03/22 08:35:33;;;;;;;18.25;9.63;;;;;;;7.30;50.79;98772.53;5029810;28;20111;-64
2022/03/22 08:38:00;;;;;;;19.98;10.50;;;;;;;7.39;50.01;98763.28;5027404;28;20421;-61
2022/03/22 08:40:27;;;;;;;18.08;10.02;;;;;;;7.58;49.60;98774.38;5027315;28;20087;-61
2022/03/22 08:42:56;;;;;;;17.92;10.45;;;;;;;7.68;49.19;98764.03;5021431;28;20045;-71
2022/03/22 08:45:25;;;;;;;17.77;9.70;;;;;;;7.75;49.22;98774.06;5021284;28;20050;-68
2022/03/22 08:47:53;;;;;;;16.25;9.85;;;;;;;7.76;49.37;98765.78;5022530;28;20067;-69
2022/03/22 08:50:25;;;;;;;21.77;10.45;;;;;;;7.82;48.83;98766.84;5023364;28;20045;-68
2022/03/22 08:52:56;;;;;;;19.45;10.27;;;;;;;7.95;48.54;98768.75;5021076;28;20409;-68
2022/03/22 08:55:24;;;;;;;17.85;10.85;;;;;;;8.06;47.32;98764.66;5023543;28;20143;-66
2022/03/22 08:57:52;;;;;;;16.60;10.80;;;;;;;8.13;48.05;98767.38;5038024;28;20053;-66
2022/03/22 09:00:20;;;;;;;18.73;9.48;;;;;;;8.25;48.67;98763.06;5023398;28;20049;-66
2022/03/22 09:02:49;;;;;;;16.17;9.60;;;;;;;8.52;47.44;98757.72;5026131;28;20386;-66
2022/03/22 09:08:05;;;;;;;18.90;10.57;;;;;;;8.46;47.83;98764.81;5026063;28;20046;-66
2022/03/22 09:10:33;;;;;;;19.60;10.70;;;;;;;8.60;47.38;98756.75;5026138;28;20099;-65
2022/03/22 09:13:00;;;;;;;20.38;9.43;;;;;;;8.73;47.65;98761.34;5026763;28;20567;-66
2022/03/22 09:15:28;;;;;;;24.08;11.27;;;;;;;8.87;47.47;98758.66;5027029;28;20045;-66
2022/03/22 09:17:56;;;;;;;21.70;10.48;;;;;;;8.89;47.04;98767.41;5025508;28;20041;-66
2022/03/22 09:20:24;;;;;;;16.50;9.93;;;;;;;9.00;46.23;98764.09;5027602;28;20045;-65
2022/03/22 09:22:52;;;;;;;17.50;10.30;;;;;;;9.09;46.42;98767.41;5025535;28;20064;-66
2022/03/22 09:25:22;;;;;;;18.10;10.27;;;;;;;9.34;45.77;98764.91;5027395;28;20053;-65
2022/03/22 09:27:50;;;;;;;19.73;11.10;;;;;;;9.37;45.18;98771.75;5026562;28;20033;-65
2022/03/22 09:30:17;;;;;;;21.60;11.65;;;;;;;9.47;44.54;98765.94;5021723;28;20053;-68
2022/03/22 09:32:45;;;;;;;20.42;11.38;;;;;;;9.48;44.93;98762.19;5020242;28;20045;-66
2022/03/22 09:35:13;;;;;;;16.83;10.65;;;;;;;9.68;44.11;98764.84;5028031;28;20056;-66
2022/03/22 09:37:42;;;;;;;18.38;11.02;;;;;;;9.60;44.04;98765.06;5027121;28;20556;-66
2022/03/22 09:40:11;;;;;;;19.02;11.65;;;;;;;9.60;43.54;98765.06;5026251;28;20064;-66
2022/03/22 09:42:42;;;;;;;15.57;11.02;;;;;;;9.72;43.87;98766.09;5026812;28;20041;-66
2022/03/22 09:45:10;;;;;;;21.65;11.50;;;;;;;9.75;43.79;98762.13;5027132;28;20046;-67
2022/03/22 09:47:37;;;;;;;19.77;12.02;;;;;;;9.92;44.13;98764.38;5026153;28;20237;-66
2022/03/22 09:50:06;;;;;;;20.55;11.80;;;;;;;9.99;43.87;98763.28;5023309;28;20053;-65
2022/03/22 09:52:34;;;;;;;21.23;12.77;;;;;;;10.00;43.66;98767.66;5012636;28;20050;-65
2022/03/22 09:55:01;;;;;;;17.77;11.60;;;;;;;10.05;43.37;98766.19;5026162;28;20079;-66
2022/03/22 09:57:28;;;;;;;22.08;12.18;;;;;;;10.10;42.70;98755.56;5028598;28;20100;-65
2022/03/22 09:59:55;;;;;;;23.45;12.00;;;;;;;10.11;41.20;98760.75;5026445;28;20085;-65
2022/03/22 10:02:30;;;;;;;19.73;12.13;;;;;;;10.10;41.74;98756.38;5025612;28;20045;-65
2022/03/22 10:04:56;;;;;;;16.60;10.70;;;;;;;10.15;40.69;98761.16;5026463;28;20120;-66
2022/03/22 10:07:29;;;;;;;19.15;11.65;;;;;;;10.14;40.65;98764.91;5025375;28;20045;-67
2022/03/22 10:10:03;;;;;;;;;;;;;;;10.21;41.44;98759.47;5026530;28;20639;-66
2022/03/22 10:12:35;;;;;;;20.92;11.65;;;;;;;10.28;41.18;98765.66;5022235;28;19929;-65
2022/03/22 10:15:08;;;;;;;20.27;12.07;;;;;;;10.36;41.30;98765.41;5025636;28;20045;-65
2022/03/22 10:17:35;;;;;;;18.23;10.98;;;;;;;10.44;40.34;98766.22;5017780;28;20457;-65
2022/03/22 10:20:19;;;;;;;22.88;12.27;;;;;;;10.61;39.50;98753.84;5035616;28;20049;-65
2022/03/22 10:22:54;;;;;;;19.67;11.75;;;;;;;10.77;39.53;98755.19;5027633;28;20040;-66
2022/03/22 10:25:21;;;;;;;22.38;12.23;;;;;;;10.95;38.84;98756.34;5037617;28;20064;-66
2022/03/22 10:27:47;;;;;;;19.88;11.38;;;;;;;11.01;38.12;98755.47;5033728;28;20527;-65
2022/03/22 10:30:30;;;;;;;20.55;13.00;;;;;;;11.04;39.05;98748.75;5023329;28;20128;-66
2022/03/22 10:32:58;;;;;;;22.70;13.25;;;;;;;11.11;39.10;98744.13;5029901;28;20103;-66
2022/03/22 10:35:27;;;;;;;23.45;11.52;;;;;;;11.22;39.14;98747.16;5023300;28;20053;-69
2022/03/22 10:38:00;;;;;;;18.25;12.05;;;;;;;11.23;38.39;98744.22;5021551;28;20045;-67
2022/03/22 10:40:33;;;;;;;19.77;11.68;;;;;;;11.25;38.46;98738.59;5021199;28;20045;-67
2022/03/22 10:43:04;;;;;;;22.95;12.70;;;;;;;11.43;37.71;98741.31;5014719;28;20053;-67
2022/03/22 10:45:42;;;;;;;20.23;11.60;;;;;;;11.56;37.22;98744.94;5020671;28;20041;-66
2022/03/22 10:48:10;;;;;;;19.52;11.80;;;;;;;11.63;36.93;98742.16;5034693;28;20037;-68
2022/03/22 10:50:38;;;;;;;19.67;11.68;;;;;;;11.52;37.40;98741.03;5023656;28;20051;-67
2022/03/22 10:53:05;;;;;;;22.42;12.90;;;;;;;11.53;36.99;98742.69;5018680;28;20064;-67
2022/03/22 10:55:32;;;;;;;17.67;12.25;;;;;;;11.58;36.14;98743.66;5018473;28;20045;-68
2022/03/22 10:58:01;;;;;;;17.02;11.55;;;;;;;11.58;36.85;98738.25;5022044;28;20053;-67
2022/03/22 11:00:30;;;;;;;19.38;11.65;;;;;;;11.81;36.19;98739.47;5017337;28;20254;-66
2022/03/22 11:02:57;;;;;;;20.08;12.25;;;;;;;11.83;36.02;98731.94;5020347;28;20489;-68
2022/03/22 11:05:25;;;;;;;17.42;11.15;;;;;;;11.93;36.56;98738.69;5021896;28;20046;-66
2022/03/22 11:07:53;;;;;;;19.77;12.27;;;;;;;11.99;36.23;98735.09;5019237;28;20385;-66
2022/03/22 11:10:30;;;;;;;19.98;12.07;;;;;;;11.99;35.65;98729.66;5022059;28;20041;-67
2022/03/22 11:12:58;;;;;;;17.05;12.05;;;;;;;12.03;34.97;98733.59;5018644;28;20053;-69
2022/03/22 11:15:27;;;;;;;18.15;10.95;;;;;;;12.04;34.93;98735.22;5022884;28;20045;-66
2022/03/22 11:17:55;;;;;;;21.30;12.25;;;;;;;12.08;34.91;98730.19;5023400;28;20397;-66
2022/03/22 11:20:24;;;;;;;16.42;11.93;;;;;;;12.03;34.41;98725.44;5022105;28;20076;-67
2022/03/22 11:22:56;;;;;;;20.70;12.02;;;;;;;12.15;34.71;98732.81;5033311;28;20703;-66
2022/03/22 11:25:35;;;;;;;21.33;12.20;;;;;;;12.23;34.65;98727.09;5026713;28;20409;-67
2022/03/22 11:28:06;;;;;;;16.85;11.93;;;;;;;12.34;34.12;98720.88;5021422;28;20048;-67
2022/03/22 11:30:33;;;;;;;17.00;12.07;;;;;;;12.39;33.37;98725.63;5019254;28;20108;-65
2022/03/22 11:35:50;;;;;;;18.83;12.10;;;;;;;12.34;33.66;98715.44;5022930;28;20045;-65
2022/03/22 11:38:47;;;;;;;18.03;11.77;;;;;;;12.39;33.78;98711.22;5019505;28;20176;-66
2022/03/22 11:44:34;;;;;;;18.45;11.63;;;;;;;12.61;33.58;98711.53;5020688;28;20528;-64
2022/03/22 11:47:05;;;;;;;19.30;11.52;;;;;;;12.82;33.58;98712.03;5020389;28;20049;-65
2022/03/22 11:49:47;;;;;;;18.60;11.00;;;;;;;12.94;32.97;98712.06;5016203;28;20030;-65
2022/03/22 11:52:13;;;;;;;18.50;11.05;;;;;;;12.97;32.63;98717.03;5017882;28;20570;-66
2022/03/22 11:54:41;;;;;;;16.77;11.07;;;;;;;13.09;33.22;98714.31;5016672;28;20052;-65
2022/03/22 11:57:16;;;;;;;17.02;10.93;;;;;;;13.09;32.85;98715.13;5022344;28;20049;-65
2022/03/22 11:59:45;;;;;;;16.30;10.93;;;;;;;13.12;32.58;98709.22;5020841;28;20033;-65